createdAt,value
2022-08-22T00:00:20.288Z,40.75
2022-08-22T00:02:45.528Z,44.25
2022-08-22T00:02:53.685Z,43.30
2022-08-22T00:02:55.263Z,40.35
2022-08-22T00:02:55.811Z,40.39
2022-08-22T00:03:08.203Z,41.09
2022-08-22T00:03:16.217Z,40.80
2022-08-22T00:05:32.977Z,40.57
2022-08-22T00:07:59.554Z,40.57
2022-08-22T00:10:26.082Z,40.83
2022-08-22T00:12:52.442Z,41.00
2022-08-22T00:15:42.108Z,40.51
2022-08-22T00:18:05.657Z,40.97
2022-08-22T00:20:32.144Z,41.18
2022-08-22T00:22:58.503Z,40.97
2022-08-22T00:25:26.119Z,41.54
2022-08-22T00:27:52.712Z,41.29
2022-08-22T00:30:19.068Z,41.35
2022-08-22T00:32:45.433Z,41.16
2022-08-22T00:35:11.797Z,41.11
2022-08-22T00:37:38.172Z,41.09
2022-08-22T00:40:04.558Z,41.50
2022-08-22T00:42:32.104Z,41.16
2022-08-22T00:44:58.708Z,41.40
2022-08-22T00:47:25.082Z,41.73
2022-08-22T00:49:51.464Z,40.97
2022-08-22T00:52:17.829Z,41.36
2022-08-22T00:54:44.182Z,41.36
2022-08-22T00:57:10.536Z,41.73
2022-08-22T00:59:36.888Z,41.48
2022-08-22T01:02:03.249Z,41.85
2022-08-22T01:04:29.613Z,42.09
2022-08-22T01:06:55.968Z,41.87
2022-08-22T01:09:22.349Z,42.32
2022-08-22T01:11:48.715Z,41.66
2022-08-22T01:14:15.077Z,41.83
2022-08-22T01:16:41.461Z,42.09
2022-08-22T01:19:07.807Z,42.54
2022-08-22T01:21:34.168Z,42.29
2022-08-22T01:24:00.542Z,41.98
2022-08-22T01:26:28.551Z,42.37
2022-08-22T01:28:54.971Z,42.41
2022-08-22T01:31:21.616Z,42.52
2022-08-22T01:33:48.866Z,42.46
2022-08-22T01:36:16.200Z,42.30
2022-08-22T01:38:42.701Z,42.23
2022-08-22T01:41:10.421Z,42.29
2022-08-22T01:43:58.746Z,42.36
2022-08-22T01:46:24.792Z,42.10
2022-08-22T01:48:51.147Z,42.30
2022-08-22T01:51:17.506Z,42.26
2022-08-22T01:53:43.863Z,42.50
2022-08-22T01:56:10.230Z,43.04
2022-08-22T01:58:36.582Z,42.69
2022-08-22T02:01:03.009Z,42.37
2022-08-22T02:03:29.387Z,42.73
2022-08-22T02:05:55.745Z,42.80
2022-08-22T02:08:22.113Z,42.59
2022-08-22T02:10:48.475Z,42.74
2022-08-22T02:13:14.837Z,42.80
2022-08-22T02:15:41.207Z,42.61
2022-08-22T02:18:10.340Z,42.65
2022-08-22T02:20:36.699Z,42.43
2022-08-22T02:23:03.055Z,42.61
2022-08-22T02:25:29.415Z,42.81
2022-08-22T02:27:55.798Z,42.19
2022-08-22T02:30:22.249Z,42.39
2022-08-22T02:32:48.601Z,42.69
2022-08-22T02:35:14.964Z,42.14
2022-08-22T02:37:41.325Z,42.24
2022-08-22T02:40:07.726Z,42.07
2022-08-22T02:42:34.137Z,42.38
2022-08-22T02:45:00.490Z,42.22
2022-08-22T02:47:26.845Z,42.25
2022-08-22T02:49:53.205Z,42.04
2022-08-22T02:52:22.201Z,42.04
2022-08-22T02:54:48.586Z,42.07
2022-08-22T02:57:14.944Z,42.55
2022-08-22T02:59:41.306Z,42.33
2022-08-22T03:02:07.664Z,42.06
2022-08-22T03:04:34.035Z,42.24
2022-08-22T03:07:00.391Z,42.33
2022-08-22T03:09:26.740Z,41.82
2022-08-22T03:11:53.105Z,41.65
2022-08-22T03:14:19.455Z,41.80
2022-08-22T03:16:45.822Z,41.75
2022-08-22T03:19:18.457Z,41.57
2022-08-22T03:21:45.309Z,41.53
2022-08-22T03:24:11.663Z,41.42
2022-08-22T03:26:38.042Z,41.60
2022-08-22T03:29:04.414Z,41.68
2022-08-22T03:31:30.770Z,41.47
2022-08-22T03:33:57.131Z,41.68
2022-08-22T03:36:23.497Z,41.71
2022-08-22T03:38:49.861Z,41.92
2022-08-22T03:41:16.229Z,41.88
2022-08-22T03:43:42.593Z,41.78
2022-08-22T03:46:08.970Z,41.91
2022-08-22T03:48:35.326Z,41.92
2022-08-22T03:51:03.914Z,41.61
2022-08-22T03:53:30.273Z,41.74
2022-08-22T03:55:56.641Z,41.52
2022-08-22T03:58:28.048Z,41.55
2022-08-22T04:00:55.980Z,41.88
2022-08-22T04:03:23.145Z,41.44
2022-08-22T04:05:49.505Z,41.56
2022-08-22T04:08:24.257Z,41.30
2022-08-22T04:10:52.450Z,41.23
2022-08-22T04:13:18.804Z,41.68
2022-08-22T04:15:51.097Z,41.68
2022-08-22T04:18:17.465Z,41.41
2022-08-22T04:20:44.837Z,41.72
2022-08-22T04:23:11.201Z,41.55
2022-08-22T04:25:37.560Z,41.80
2022-08-22T04:28:03.919Z,41.93
2022-08-22T04:30:30.292Z,41.69
2022-08-22T04:32:56.651Z,41.88
2022-08-22T04:35:23.015Z,42.06
2022-08-22T04:37:49.382Z,42.11
2022-08-22T04:40:15.832Z,41.50
2022-08-22T04:42:42.277Z,41.48
2022-08-22T04:45:08.648Z,41.67
2022-08-22T04:47:35.004Z,41.50
2022-08-22T04:50:01.356Z,42.17
2022-08-22T04:52:29.594Z,41.87
2022-08-22T04:54:56.090Z,41.64
2022-08-22T04:57:22.468Z,41.76
2022-08-22T04:59:48.836Z,42.61
2022-08-22T05:02:17.533Z,43.54
2022-08-22T05:04:43.885Z,44.44
2022-08-22T05:07:10.255Z,45.91
2022-08-22T05:09:36.628Z,45.16
2022-08-22T05:12:02.993Z,44.91
2022-08-22T05:14:29.354Z,44.78
2022-08-22T05:16:55.724Z,44.68
2022-08-22T05:19:29.686Z,44.78
2022-08-22T05:21:58.210Z,44.63
2022-08-22T05:24:28.089Z,44.92
2022-08-22T05:26:54.620Z,44.72
2022-08-22T05:29:20.995Z,44.91
2022-08-22T05:31:47.360Z,44.78
2022-08-22T05:34:13.720Z,44.74
2022-08-22T05:36:40.094Z,44.96
2022-08-22T05:39:06.467Z,44.94
2022-08-22T05:41:32.834Z,44.64
2022-08-22T05:43:59.196Z,44.84
2022-08-22T05:46:27.360Z,45.05
2022-08-22T05:48:53.765Z,45.20
2022-08-22T05:51:20.128Z,45.14
2022-08-22T05:53:46.488Z,44.96
2022-08-22T05:56:12.847Z,44.86
2022-08-22T05:58:39.227Z,45.07
2022-08-22T06:01:05.595Z,44.95
2022-08-22T06:03:31.960Z,45.01
2022-08-22T06:05:58.343Z,44.94
2022-08-22T06:08:24.714Z,45.10
2022-08-22T06:10:51.067Z,45.09
2022-08-22T06:13:17.419Z,44.98
2022-08-22T06:15:50.897Z,44.73
2022-08-22T06:18:17.269Z,45.01
2022-08-22T06:20:43.636Z,44.73
2022-08-22T06:23:09.992Z,44.63
2022-08-22T06:25:36.355Z,44.71
2022-08-22T06:28:02.716Z,44.76
2022-08-22T06:30:29.071Z,44.71
2022-08-22T06:32:59.407Z,44.71
2022-08-22T06:35:26.846Z,44.78
2022-08-22T06:37:53.237Z,44.87
2022-08-22T06:40:19.741Z,44.70
2022-08-22T06:42:46.191Z,44.57
2022-08-22T06:45:12.560Z,44.77
2022-08-22T06:47:38.923Z,44.99
2022-08-22T06:50:05.800Z,44.92
2022-08-22T06:52:32.159Z,44.65
2022-08-22T06:54:58.525Z,44.83
2022-08-22T06:57:25.167Z,44.43
2022-08-22T06:59:51.531Z,44.73
2022-08-22T07:02:17.891Z,44.72
2022-08-22T07:04:44.908Z,44.61
2022-08-22T07:07:11.255Z,44.56
2022-08-22T07:09:37.609Z,44.45
2022-08-22T07:12:03.975Z,44.50
2022-08-22T07:14:30.335Z,44.77
2022-08-22T07:16:56.691Z,44.48
2022-08-22T07:19:23.041Z,44.48
2022-08-22T07:21:49.406Z,44.49
2022-08-22T07:24:15.774Z,44.66
2022-08-22T07:26:42.147Z,44.40
2022-08-22T07:29:11.479Z,44.57
2022-08-22T07:31:37.976Z,44.50
2022-08-22T07:34:04.773Z,44.71
2022-08-22T07:36:31.906Z,44.45
2022-08-22T07:38:58.526Z,44.32
2022-08-22T07:41:24.908Z,44.40
2022-08-22T07:43:51.267Z,44.50
2022-08-22T07:46:17.621Z,44.75
2022-08-22T07:49:05.876Z,44.59
2022-08-22T07:51:30.323Z,44.61
2022-08-22T07:54:00.361Z,44.40
2022-08-22T07:56:27.221Z,44.44
2022-08-22T07:58:53.604Z,44.48
2022-08-22T08:01:20.034Z,44.76
2022-08-22T08:03:46.481Z,44.77
2022-08-22T08:06:12.840Z,44.53
2022-08-22T08:08:39.192Z,44.73
2022-08-22T08:11:05.558Z,44.60
2022-08-22T08:13:31.928Z,44.40
2022-08-22T08:15:58.286Z,44.56
2022-08-22T08:18:24.636Z,44.46
2022-08-22T08:20:51.004Z,44.46
2022-08-22T08:23:17.378Z,44.54
2022-08-22T08:25:53.754Z,44.74
2022-08-22T08:28:20.257Z,44.58
2022-08-22T08:30:47.928Z,44.75
2022-08-22T08:33:24.627Z,44.90
2022-08-22T08:36:02.265Z,44.41
2022-08-22T08:38:30.052Z,44.99
2022-08-22T08:40:56.410Z,44.61
2022-08-22T08:43:22.784Z,44.95
2022-08-22T08:45:49.137Z,44.87
2022-08-22T08:48:15.497Z,44.78
2022-08-22T08:50:43.295Z,44.71
2022-08-22T08:53:09.718Z,44.67
2022-08-22T08:55:36.957Z,44.51
2022-08-22T08:58:07.058Z,44.78
2022-08-22T09:00:33.576Z,44.51
2022-08-22T09:02:59.931Z,44.77
2022-08-22T09:05:32.807Z,44.71
2022-08-22T09:07:59.289Z,44.72
2022-08-22T09:10:28.729Z,44.63
2022-08-22T09:13:11.326Z,44.60
2022-08-22T09:15:39.014Z,44.82
2022-08-22T09:18:05.407Z,44.72
2022-08-22T09:20:32.901Z,44.75
2022-08-22T09:22:59.256Z,44.95
2022-08-22T09:25:25.626Z,45.25
2022-08-22T09:27:51.986Z,45.03
2022-08-22T09:30:18.341Z,45.12
2022-08-22T09:32:54.167Z,44.99
2022-08-22T09:35:20.519Z,45.12
2022-08-22T09:37:48.892Z,44.94
2022-08-22T09:40:21.266Z,45.04
2022-08-22T09:42:51.197Z,45.41
2022-08-22T09:45:18.208Z,45.33
2022-08-22T09:47:44.571Z,45.32
2022-08-22T09:50:10.922Z,45.41
2022-08-22T09:52:37.305Z,45.21
2022-08-22T09:55:03.692Z,45.63
2022-08-22T09:57:34.549Z,45.44
2022-08-22T10:00:00.908Z,45.32
2022-08-22T10:02:28.505Z,44.98
2022-08-22T10:04:56.467Z,45.26
2022-08-22T10:07:24.578Z,45.44
2022-08-22T10:09:53.584Z,45.76
2022-08-22T10:12:24.801Z,45.75
2022-08-22T10:14:51.357Z,45.53
2022-08-22T10:17:21.948Z,45.60
2022-08-22T10:19:48.537Z,45.46
2022-08-22T10:22:15.163Z,45.46
2022-08-22T10:24:44.020Z,45.90
2022-08-22T10:27:10.539Z,45.95
2022-08-22T10:29:36.911Z,45.76
2022-08-22T10:32:10.815Z,46.00
2022-08-22T10:34:41.016Z,45.86
2022-08-22T10:37:08.644Z,45.64
2022-08-22T10:39:36.713Z,45.87
2022-08-22T10:42:03.091Z,45.76
2022-08-22T10:44:29.479Z,46.27
2022-08-22T10:46:56.340Z,45.67
2022-08-22T10:49:28.749Z,46.02
2022-08-22T10:51:56.380Z,46.09
2022-08-22T10:54:24.754Z,46.28
2022-08-22T10:56:51.112Z,45.92
2022-08-22T10:59:18.936Z,45.86
2022-08-22T11:01:49.185Z,45.82
2022-08-22T11:04:15.563Z,45.96
2022-08-22T11:06:41.922Z,45.92
2022-08-22T11:09:11.148Z,46.17
2022-08-22T11:11:37.645Z,46.26
2022-08-22T11:14:04.357Z,46.14
2022-08-22T11:16:30.734Z,46.46
2022-08-22T11:19:14.610Z,46.05
2022-08-22T11:21:41.781Z,46.09
2022-08-22T11:24:08.171Z,46.11
2022-08-22T11:26:47.245Z,46.34
2022-08-22T11:29:14.549Z,46.02
2022-08-22T11:31:51.313Z,46.33
2022-08-22T11:34:20.554Z,45.98
2022-08-22T11:36:47.052Z,46.29
2022-08-22T11:39:18.362Z,45.97
2022-08-22T11:41:45.284Z,46.17
2022-08-22T11:44:18.861Z,46.01
2022-08-22T11:46:45.221Z,46.25
2022-08-22T11:49:11.584Z,46.24
2022-08-22T11:51:37.944Z,46.06
2022-08-22T11:54:05.312Z,46.12
2022-08-22T11:56:31.674Z,46.08
2022-08-22T11:58:58.048Z,46.16
2022-08-22T12:01:24.405Z,45.83
2022-08-22T12:03:53.985Z,45.95
2022-08-22T12:06:24.885Z,45.95
2022-08-22T12:08:51.238Z,45.87
2022-08-22T12:11:17.595Z,46.03
2022-08-22T12:13:44.207Z,46.03
2022-08-22T12:16:10.590Z,46.15
2022-08-22T12:18:37.387Z,45.93
2022-08-22T12:21:03.744Z,45.95
2022-08-22T12:23:48.991Z,46.04
2022-08-22T12:26:16.239Z,46.16
2022-08-22T12:28:42.780Z,45.83
2022-08-22T12:31:09.131Z,46.03
2022-08-22T12:33:36.136Z,45.70
2022-08-22T12:36:02.645Z,45.96
2022-08-22T12:38:34.766Z,46.10
2022-08-22T12:41:03.743Z,46.31
2022-08-22T12:43:35.346Z,45.86
2022-08-22T12:46:12.924Z,45.92
2022-08-22T12:48:39.817Z,45.76
2022-08-22T12:51:17.720Z,45.70
2022-08-22T12:53:44.738Z,45.77
2022-08-22T12:56:11.369Z,46.18
2022-08-22T12:58:37.722Z,45.89
2022-08-22T13:01:04.653Z,45.95
2022-08-22T13:03:32.800Z,46.03
2022-08-22T13:06:00.227Z,45.82
2022-08-22T13:08:26.977Z,45.92
2022-08-22T13:10:55.581Z,45.85
2022-08-22T13:13:23.634Z,45.64
2022-08-22T13:15:58.170Z,45.85
2022-08-22T13:18:30.470Z,45.62
2022-08-22T13:20:57.298Z,45.43
2022-08-22T13:23:24.477Z,45.34
2022-08-22T13:25:51.914Z,45.77
2022-08-22T13:28:18.259Z,45.62
2022-08-22T13:30:44.612Z,45.41
2022-08-22T13:33:14.606Z,45.70
2022-08-22T13:35:44.617Z,45.67
2022-08-22T13:38:23.808Z,45.90
2022-08-22T13:40:52.153Z,45.48
2022-08-22T13:43:18.548Z,45.66
2022-08-22T13:45:44.915Z,45.69
2022-08-22T13:48:11.387Z,45.63
2022-08-22T13:50:53.338Z,46.08
2022-08-22T13:53:20.355Z,45.85
2022-08-22T13:55:48.989Z,45.95
2022-08-22T13:58:15.661Z,46.24
2022-08-22T14:00:48.659Z,45.70
2022-08-22T14:03:23.785Z,45.73
2022-08-22T14:05:50.137Z,45.92
2022-08-22T14:08:19.629Z,46.25
2022-08-22T14:10:45.983Z,46.21
2022-08-22T14:13:21.411Z,45.95
2022-08-22T14:15:47.781Z,45.70
2022-08-22T14:18:18.494Z,45.80
2022-08-22T14:20:45.129Z,45.87
2022-08-22T14:23:13.955Z,45.96
2022-08-22T14:25:40.333Z,45.78
2022-08-22T14:28:09.502Z,45.76
2022-08-22T14:30:36.033Z,45.34
2022-08-22T14:33:02.522Z,45.96
2022-08-22T14:35:34.787Z,45.98
2022-08-22T14:38:03.765Z,45.63
2022-08-22T14:40:43.453Z,45.82
2022-08-22T14:43:09.985Z,45.94
2022-08-22T14:45:36.901Z,45.99
2022-08-22T14:48:29.711Z,45.71
2022-08-22T14:50:49.658Z,45.74
2022-08-22T14:53:19.522Z,45.80
2022-08-22T14:55:48.788Z,46.05
2022-08-22T14:58:27.743Z,46.08
2022-08-22T15:00:54.229Z,45.71
2022-08-22T15:03:20.596Z,45.72
2022-08-22T15:05:46.943Z,46.04
2022-08-22T15:08:13.304Z,45.93
2022-08-22T15:10:42.324Z,46.25
2022-08-22T15:13:08.851Z,46.11
2022-08-22T15:15:49.356Z,45.83
2022-08-22T15:18:20.035Z,45.79
2022-08-22T15:20:52.139Z,46.36
2022-08-22T15:23:18.752Z,45.78
2022-08-22T15:25:46.902Z,46.27
2022-08-22T15:28:14.357Z,46.42
2022-08-22T15:30:46.632Z,46.35
2022-08-22T15:33:14.178Z,46.33
2022-08-22T15:35:40.532Z,46.22
2022-08-22T15:38:06.887Z,45.97
2022-08-22T15:40:33.240Z,46.41
2022-08-22T15:42:59.878Z,46.02
2022-08-22T15:45:26.888Z,45.88
2022-08-22T15:47:53.476Z,46.26
2022-08-22T15:50:19.842Z,45.82
2022-08-22T15:52:46.546Z,46.24
2022-08-22T15:55:31.373Z,46.10
2022-08-22T15:58:02.855Z,46.06
2022-08-22T16:00:29.287Z,46.12
2022-08-22T16:02:55.707Z,46.18
2022-08-22T16:05:22.083Z,46.06
2022-08-22T16:07:48.446Z,46.27
2022-08-22T16:10:14.805Z,46.11
2022-08-22T16:12:41.169Z,46.29
2022-08-22T16:15:07.527Z,45.97
2022-08-22T16:17:33.880Z,46.33
2022-08-22T16:20:00.347Z,46.11
2022-08-22T16:22:26.763Z,46.15
2022-08-22T16:24:53.128Z,46.00
2022-08-22T16:27:19.735Z,45.58
2022-08-22T16:29:46.091Z,45.93
2022-08-22T16:32:12.476Z,45.87
2022-08-22T16:34:38.850Z,45.88
2022-08-22T16:37:05.215Z,46.04
2022-08-22T16:39:31.584Z,46.08
2022-08-22T16:41:57.942Z,45.84
2022-08-22T16:44:24.313Z,45.74
2022-08-22T16:46:50.662Z,45.35
2022-08-22T16:49:17.038Z,45.52
2022-08-22T16:51:43.411Z,45.79
2022-08-22T16:54:09.771Z,46.16
2022-08-22T16:56:36.144Z,46.15
2022-08-22T16:59:19.309Z,46.22
2022-08-22T17:01:48.968Z,46.25
2022-08-22T17:04:15.377Z,46.02
2022-08-22T17:06:41.732Z,46.19
2022-08-22T17:09:08.079Z,46.08
2022-08-22T17:11:34.439Z,45.96
2022-08-22T17:14:00.853Z,46.31
2022-08-22T17:16:27.240Z,46.69
2022-08-22T17:18:53.604Z,46.33
2022-08-22T17:21:25.320Z,46.31
2022-08-22T17:23:52.115Z,46.36
2022-08-22T17:26:18.520Z,46.18
2022-08-22T17:28:44.921Z,46.59
2022-08-22T17:31:11.451Z,46.72
2022-08-22T17:33:37.823Z,46.96
2022-08-22T17:36:04.173Z,46.58
2022-08-22T17:38:31.512Z,46.63
2022-08-22T17:40:57.868Z,46.71
2022-08-22T17:43:24.220Z,46.95
2022-08-22T17:45:50.603Z,46.82
2022-08-22T17:48:16.952Z,46.77
2022-08-22T17:50:43.323Z,47.11
2022-08-22T17:53:09.694Z,47.11
2022-08-22T17:55:36.048Z,46.79
2022-08-22T17:58:03.335Z,47.15
2022-08-22T18:00:29.712Z,47.06
2022-08-22T18:02:56.151Z,46.52
2022-08-22T18:05:22.574Z,47.17
2022-08-22T18:07:48.941Z,47.04
2022-08-22T18:10:15.301Z,46.79
2022-08-22T18:12:41.668Z,46.98
2022-08-22T18:15:08.030Z,47.20
2022-08-22T18:17:34.409Z,46.91
2022-08-22T18:20:00.774Z,46.88
2022-08-22T18:22:27.130Z,46.75
2022-08-22T18:24:53.499Z,47.17
2022-08-22T18:27:30.069Z,47.53
2022-08-22T18:30:04.119Z,47.33
2022-08-22T18:32:30.476Z,47.11
2022-08-22T18:34:59.803Z,47.54
2022-08-22T18:37:29.108Z,47.17
2022-08-22T18:39:55.809Z,47.83
2022-08-22T18:42:22.205Z,47.58
2022-08-22T18:44:48.564Z,47.15
2022-08-22T18:47:14.920Z,47.30
2022-08-22T18:49:41.278Z,47.35
2022-08-22T18:52:07.713Z,46.92
2022-08-22T18:54:34.097Z,46.60
2022-08-22T18:57:00.448Z,46.72
2022-08-22T18:59:26.823Z,46.65
2022-08-22T19:01:53.843Z,46.65
2022-08-22T19:04:20.603Z,47.01
2022-08-22T19:06:46.989Z,47.10
2022-08-22T19:09:15.068Z,46.94
2022-08-22T19:11:42.258Z,46.56
2022-08-22T19:14:08.624Z,47.04
2022-08-22T19:16:35.000Z,47.13
2022-08-22T19:19:03.031Z,46.85
2022-08-22T19:21:29.409Z,46.77
2022-08-22T19:23:55.785Z,46.89
2022-08-22T19:26:22.149Z,47.22
2022-08-22T19:28:48.517Z,47.05
2022-08-22T19:31:16.565Z,47.01
2022-08-22T19:33:43.106Z,47.02
2022-08-22T19:36:09.469Z,47.27
2022-08-22T19:38:35.840Z,47.22
2022-08-22T19:41:02.214Z,47.50
2022-08-22T19:43:28.671Z,47.28
2022-08-22T19:45:55.030Z,47.27
2022-08-22T19:48:21.402Z,47.42
2022-08-22T19:50:47.794Z,47.65
2022-08-22T19:53:14.163Z,47.73
2022-08-22T19:55:40.516Z,47.75
2022-08-22T19:58:06.892Z,48.02
2022-08-22T20:00:33.254Z,47.35
2022-08-22T20:02:59.701Z,47.32
2022-08-22T20:05:26.175Z,47.71
2022-08-22T20:07:52.532Z,47.55
2022-08-22T20:10:18.892Z,47.28
2022-08-22T20:12:45.251Z,47.55
2022-08-22T20:15:11.614Z,47.58
2022-08-22T20:17:37.992Z,47.40
2022-08-22T20:20:19.677Z,47.71
2022-08-22T20:22:52.730Z,47.05
2022-08-22T20:25:42.320Z,47.25
2022-08-22T20:28:10.161Z,47.30
2022-08-22T20:30:36.538Z,47.40
2022-08-22T20:33:02.904Z,47.18
2022-08-22T20:35:29.265Z,47.27
2022-08-22T20:38:10.895Z,47.28
2022-08-22T20:40:55.428Z,47.34
2022-08-22T20:43:23.222Z,47.35
2022-08-22T20:45:49.589Z,47.08
2022-08-22T20:48:16.203Z,47.56
2022-08-22T20:50:42.564Z,47.47
2022-08-22T20:53:09.650Z,47.37
2022-08-22T20:55:36.254Z,47.42
2022-08-22T20:58:02.643Z,47.78
2022-08-22T21:00:29.017Z,47.76
2022-08-22T21:02:55.396Z,47.27
2022-08-22T21:05:21.761Z,47.61
2022-08-22T21:07:48.138Z,47.39
2022-08-22T21:10:16.737Z,47.25
2022-08-22T21:12:46.600Z,47.32
2022-08-22T21:15:12.966Z,47.23
2022-08-22T21:17:39.592Z,47.67
2022-08-22T21:20:06.022Z,47.64
2022-08-22T21:22:32.378Z,47.44
2022-08-22T21:24:58.741Z,47.71
2022-08-22T21:27:25.097Z,47.43
2022-08-22T21:29:51.449Z,47.57
2022-08-22T21:32:17.805Z,47.46
2022-08-22T21:34:44.176Z,47.71
2022-08-22T21:37:10.607Z,47.64
2022-08-22T21:39:36.990Z,47.48
2022-08-22T21:42:03.350Z,47.35
2022-08-22T21:44:29.764Z,47.43
2022-08-22T21:46:56.137Z,47.67
2022-08-22T21:49:22.513Z,47.64
2022-08-22T21:51:48.885Z,47.54
2022-08-22T21:54:18.217Z,47.57
2022-08-22T21:56:45.289Z,47.48
2022-08-22T21:59:12.153Z,47.23
2022-08-22T22:01:38.756Z,47.24
2022-08-22T22:04:09.148Z,47.54
2022-08-22T22:06:35.520Z,47.34
2022-08-22T22:09:01.877Z,47.38
2022-08-22T22:11:28.224Z,47.27
2022-08-22T22:13:54.601Z,47.22
2022-08-22T22:16:20.963Z,47.45
2022-08-22T22:18:47.339Z,47.32
2022-08-22T22:21:13.720Z,47.18
2022-08-22T22:23:40.085Z,47.25
2022-08-22T22:26:06.456Z,47.29
2022-08-22T22:28:32.817Z,47.26
2022-08-22T22:30:59.193Z,47.57
2022-08-22T22:33:25.562Z,47.26
2022-08-22T22:35:51.931Z,47.42
2022-08-22T22:38:23.278Z,47.13
2022-08-22T22:40:50.424Z,47.31
2022-08-22T22:43:16.789Z,47.13
2022-08-22T22:45:43.148Z,46.91
2022-08-22T22:48:09.511Z,46.85
2022-08-22T22:50:35.856Z,46.85
2022-08-22T22:53:03.411Z,46.54
2022-08-22T22:55:29.764Z,46.13
2022-08-22T22:57:58.923Z,46.21
2022-08-22T23:00:25.867Z,46.09
2022-08-22T23:02:57.418Z,46.24
2022-08-22T23:05:23.776Z,46.10
2022-08-22T23:07:50.135Z,45.75
2022-08-22T23:10:21.397Z,45.99
2022-08-22T23:12:48.369Z,45.74
2022-08-22T23:15:14.736Z,45.81
2022-08-22T23:17:41.090Z,45.88
2022-08-22T23:20:07.448Z,45.99
2022-08-22T23:22:33.804Z,45.96
2022-08-22T23:25:00.156Z,46.51
2022-08-22T23:27:26.525Z,46.51
2022-08-22T23:29:52.898Z,45.93
2022-08-22T23:32:19.258Z,46.14
2022-08-22T23:34:45.627Z,45.97
2022-08-22T23:37:11.976Z,45.85
2022-08-22T23:39:38.346Z,45.85
2022-08-22T23:42:04.724Z,45.90
2022-08-22T23:44:31.089Z,45.74
2022-08-22T23:46:57.468Z,45.84
2022-08-22T23:49:23.840Z,45.96
2022-08-22T23:51:50.206Z,45.71
2022-08-22T23:54:16.562Z,45.97
2022-08-22T23:56:42.930Z,45.90
2022-08-22T23:59:09.285Z,45.64
